Time;durP1;ratioP1;P1;durP2;ratioP2;P2;SDS_P1;SDS_P2;PMS_P1;PMS_P2;Temp;Humidity;BMP_temperature;BMP_pressure;BME280_temperature;BME280_humidity;BME280_pressure;Samples;Min_cycle;Max_cycle;Signal;HPM_P1;HPM_P2
2022/11/01 00:02:29;;;;;;;332.63;96.38;;;;;;;;;;6275903;28;20072;-68
2022/11/01 00:05:30;;;;;;;400.67;111.05;;;;;;;;;;6284917;28;20052;-64
2022/11/01 00:08:30;;;;;;;495.67;133.05;;;;;;;;;;6292574;28;20128;-68
2022/11/01 00:11:31;;;;;;;470.80;132.80;;;;;;;;;;6291748;28;20051;-68
2022/11/01 00:14:31;;;;;;;439.00;118.40;;;;;;;;;;6291040;28;20044;-65
2022/11/01 00:17:32;;;;;;;572.05;138.32;;;;;;;;;;6291448;28;20058;-68
2022/11/01 00:20:33;;;;;;;479.98;119.72;;;;;;;;;;6291788;28;20048;-67
2022/11/01 00:23:33;;;;;;;356.33;104.97;;;;;;;;;;6291510;28;20045;-66
2022/11/01 00:26:34;;;;;;;384.30;103.68;;;;;;;;;;6291247;28;20071;-64
2022/11/01 00:29:34;;;;;;;336.10;102.78;;;;;;;;;;6292023;28;20390;-68
2022/11/01 00:32:35;;;;;;;380.10;105.82;;;;;;;;;;6292614;28;20155;-64
2022/11/01 00:35:35;;;;;;;312.20;91.43;;;;;;;;;;6290934;28;20074;-69
2022/11/01 00:38:37;;;;;;;285.83;84.63;;;;;;;;;;6291935;28;20041;-66
2022/11/01 00:41:37;;;;;;;235.02;82.25;;;;;;;;;;6292109;28;20056;-68
2022/11/01 00:44:38;;;;;;;262.13;83.40;;;;;;;;;;6290294;28;20047;-68
2022/11/01 00:47:38;;;;;;;214.65;75.88;;;;;;;;;;6291675;28;20414;-68
2022/11/01 00:50:39;;;;;;;230.95;80.05;;;;;;;;;;6292224;28;20091;-64
2022/11/01 00:53:40;;;;;;;280.10;89.28;;;;;;;;;;6291270;28;20044;-68
2022/11/01 00:56:40;;;;;;;233.77;86.20;;;;;;;;;;6289725;28;20494;-67
2022/11/01 00:59:41;;;;;;;201.55;74.32;;;;;;;;;;6291692;28;20048;-64
2022/11/01 01:02:42;;;;;;;281.65;79.05;;;;;;;;;;6291994;28;20052;-69
2022/11/01 01:05:42;;;;;;;242.50;80.60;;;;;;;;;;6289834;28;20049;-64
2022/11/01 01:08:43;;;;;;;243.77;81.45;;;;;;;;;;6285739;28;20048;-66
2022/11/01 01:11:43;;;;;;;228.20;84.40;;;;;;;;;;6289222;28;20050;-64
2022/11/01 01:14:44;;;;;;;196.05;78.35;;;;;;;;;;6289791;28;20131;-68
2022/11/01 01:17:44;;;;;;;184.70;75.63;;;;;;;;;;6291007;28;20056;-67
2022/11/01 01:20:45;;;;;;;172.55;67.38;;;;;;;;;;6287237;28;20048;-66
2022/11/01 01:23:47;;;;;;;192.63;71.47;;;;;;;;;;6287601;28;20036;-65
2022/11/01 01:26:48;;;;;;;;;;;;;;;;;;6290895;28;20109;-69
2022/11/01 01:29:48;;;;;;;157.02;61.25;;;;;;;;;;6291377;28;20390;-66
2022/11/01 01:32:49;;;;;;;163.48;59.05;;;;;;;;;;6284988;28;20444;-68
2022/11/01 01:35:49;;;;;;;152.57;58.13;;;;;;;;;;6293340;28;20048;-69
2022/11/01 01:38:51;;;;;;;138.48;51.90;;;;;;;;;;6295424;28;20052;-69
2022/11/01 01:41:55;;;;;;;128.50;48.28;;;;;;;;;;6295860;28;20059;-68
2022/11/01 01:44:55;;;;;;;134.45;51.85;;;;;;;;;;6294414;28;20068;-68
2022/11/01 01:48:25;;;;;;;126.65;49.97;;;;;;;;;;6295340;28;20045;-66
2022/11/01 01:51:27;;;;;;;135.70;50.72;;;;;;;;;;6292854;28;20127;-65
2022/11/01 01:54:27;;;;;;;122.35;48.38;;;;;;;;;;6287234;28;20049;-71
2022/11/01 01:57:28;;;;;;;114.38;43.80;;;;;;;;;;6293023;28;20560;-66
2022/11/01 02:00:28;;;;;;;114.35;40.47;;;;;;;;;;6288451;28;20423;-65
2022/11/01 02:03:31;;;;;;;103.10;38.45;;;;;;;;;;6285515;28;20052;-66
2022/11/01 02:06:32;;;;;;;103.05;36.78;;;;;;;;;;6284744;28;20511;-69
2022/11/01 02:09:34;;;;;;;117.22;36.35;;;;;;;;;;6286388;28;20041;-65
2022/11/01 02:12:35;;;;;;;;;;;;;;;;;;6294758;28;20131;-68
2022/11/01 02:15:46;;;;;;;120.97;33.30;;;;;;;;;;6289993;28;20331;-69
2022/11/01 02:19:10;;;;;;;107.70;33.50;;;;;;;;;;6288282;28;20123;-66
2022/11/01 02:22:16;;;;;;;106.82;34.33;;;;;;;;;;6294680;28;20399;-67
2022/11/01 02:25:34;;;;;;;110.13;33.00;;;;;;;;;;6288126;28;20445;-68
2022/11/01 02:28:38;;;;;;;131.38;31.52;;;;;;;;;;6292703;28;20509;-70
2022/11/01 02:31:53;;;;;;;118.32;30.42;;;;;;;;;;6286288;28;20404;-67
2022/11/01 02:34:59;;;;;;;121.65;33.03;;;;;;;;;;6291192;28;20047;-69
2022/11/01 02:38:25;;;;;;;124.63;31.63;;;;;;;;;;6289344;28;20572;-69
2022/11/01 02:41:38;;;;;;;108.97;32.47;;;;;;;;;;6283078;28;20044;-68
2022/11/01 02:44:43;;;;;;;111.70;31.38;;;;;;;;;;6291579;28;20177;-66
2022/11/01 02:47:44;;;;;;;121.93;29.30;;;;;;;;;;6294177;28;20160;-67
2022/11/01 02:50:51;;;;;;;91.88;29.02;;;;;;;;;;6294042;28;20407;-68
2022/11/01 02:53:51;;;;;;;134.73;29.40;;;;;;;;;;6292002;28;20119;-68
2022/11/01 02:56:52;;;;;;;81.85;26.27;;;;;;;;;;6293578;28;20056;-68
2022/11/01 03:00:01;;;;;;;86.38;26.70;;;;;;;;;;6285188;28;20056;-69
2022/11/01 03:03:29;;;;;;;111.93;28.88;;;;;;;;;;6288229;28;20045;-69
2022/11/01 03:06:36;;;;;;;94.00;25.17;;;;;;;;;;6290295;28;20076;-66
2022/11/01 03:09:39;;;;;;;85.03;25.45;;;;;;;;;;6293462;28;20127;-65
2022/11/01 03:12:57;;;;;;;113.25;26.48;;;;;;;;;;6293843;28;20180;-68
2022/11/01 03:16:28;;;;;;;90.13;22.52;;;;;;;;;;6282085;28;20057;-69
2022/11/01 03:19:51;;;;;;;104.25;25.90;;;;;;;;;;6279600;28;20119;-69
2022/11/01 03:22:54;;;;;;;;;;;;;;;;;;6293393;28;20114;-66
2022/11/01 03:25:59;;;;;;;92.70;24.63;;;;;;;;;;6293352;28;20063;-68
2022/11/01 03:29:04;;;;;;;94.35;23.90;;;;;;;;;;6289115;28;20049;-68
2022/11/01 03:32:07;;;;;;;109.43;24.38;;;;;;;;;;6285115;28;20536;-69
2022/11/01 03:35:10;;;;;;;;;;;;;;;;;;6267863;28;20069;-65
2022/11/01 03:38:17;;;;;;;96.55;24.42;;;;;;;;;;6265411;28;19925;-66
2022/11/01 03:41:21;;;;;;;110.85;26.77;;;;;;;;;;6268088;28;20044;-65
2022/11/01 03:44:23;;;;;;;116.28;27.70;;;;;;;;;;6274481;28;20523;-66
2022/11/01 03:47:24;;;;;;;144.40;27.70;;;;;;;;;;6269212;28;20067;-68
2022/11/01 03:50:26;;;;;;;127.22;30.35;;;;;;;;;;6266986;28;20099;-68
2022/11/01 03:53:26;;;;;;;;;;;;;;;;;;6279511;28;20404;-66
2022/11/01 03:56:27;;;;;;;99.82;25.48;;;;;;;;;;6290447;28;19925;-69
2022/11/01 03:59:27;;;;;;;123.47;27.05;;;;;;;;;;6291417;28;20048;-68
2022/11/01 04:02:28;;;;;;;97.18;26.95;;;;;;;;;;6290920;28;20044;-67
2022/11/01 04:05:31;;;;;;;86.00;25.48;;;;;;;;;;6292123;28;20056;-69
2022/11/01 04:08:32;;;;;;;81.00;26.65;;;;;;;;;;6292193;28;20493;-65
2022/11/01 04:11:32;;;;;;;109.82;27.13;;;;;;;;;;6290680;28;20055;-66
2022/11/01 04:21:39;;;;;;;85.38;24.33;;;;;;;;;;6200090;28;20129;-68
2022/11/01 04:24:40;;;;;;;76.88;25.65;;;;;;;;;;6290594;28;20090;-69
2022/11/01 04:27:40;;;;;;;121.38;25.35;;;;;;;;;;6292213;28;20048;-67
2022/11/01 04:30:42;;;;;;;78.18;25.50;;;;;;;;;;6292136;28;20084;-67
2022/11/01 04:33:43;;;;;;;;;;;;;;;;;;6291885;28;20456;-66
2022/11/01 04:36:43;;;;;;;78.78;24.95;;;;;;;;;;6287176;28;19982;-67
2022/11/01 04:39:44;;;;;;;79.00;26.48;;;;;;;;;;6281312;28;20119;-69
2022/11/01 04:42:44;;;;;;;84.43;25.90;;;;;;;;;;6288786;28;20040;-66
2022/11/01 04:45:53;;;;;;;69.70;22.80;;;;;;;;;;6289231;28;20049;-65
2022/11/01 04:48:53;;;;;;;67.82;22.52;;;;;;;;;;6291101;28;20052;-69
2022/11/01 04:51:54;;;;;;;67.05;22.77;;;;;;;;;;6289229;28;20444;-68
2022/11/01 04:54:54;;;;;;;63.00;22.55;;;;;;;;;;6285124;28;20044;-65
2022/11/01 04:57:55;;;;;;;65.20;22.75;;;;;;;;;;6286859;28;20069;-69
2022/11/01 05:00:55;;;;;;;62.55;22.67;;;;;;;;;;6277413;28;20401;-68
2022/11/01 05:03:56;;;;;;;59.75;22.05;;;;;;;;;;6277636;28;20860;-68
2022/11/01 05:06:57;;;;;;;62.50;22.48;;;;;;;;;;6276945;28;20054;-68
2022/11/01 05:09:58;;;;;;;61.35;22.42;;;;;;;;;;6278930;28;20068;-69
2022/11/01 05:12:59;;;;;;;59.70;21.90;;;;;;;;;;6282287;28;20417;-67
2022/11/01 05:16:03;;;;;;;62.85;21.45;;;;;;;;;;6284357;28;20522;-66
2022/11/01 05:19:04;;;;;;;56.25;20.30;;;;;;;;;;6292456;28;20052;-69
2022/11/01 05:22:05;;;;;;;59.47;22.55;;;;;;;;;;6287873;28;20052;-67
2022/11/01 05:25:08;;;;;;;53.78;20.50;;;;;;;;;;6285436;28;20161;-65
2022/11/01 05:28:12;;;;;;;56.15;19.83;;;;;;;;;;6290809;28;20126;-66
2022/11/01 05:31:13;;;;;;;53.03;17.58;;;;;;;;;;6292418;28;20058;-69
2022/11/01 05:34:13;;;;;;;45.92;17.85;;;;;;;;;;6290539;28;20094;-68
2022/11/01 05:37:14;;;;;;;46.80;18.25;;;;;;;;;;6288329;28;20055;-70
2022/11/01 05:40:15;;;;;;;42.53;16.92;;;;;;;;;;6288029;28;20136;-68
2022/11/01 05:43:15;;;;;;;43.22;17.77;;;;;;;;;;6287321;28;20040;-67
2022/11/01 05:46:16;;;;;;;50.53;18.92;;;;;;;;;;6287383;28;21214;-67
2022/11/01 05:49:17;;;;;;;45.42;18.45;;;;;;;;;;6289990;28;20131;-66
2022/11/01 05:52:17;;;;;;;46.78;17.60;;;;;;;;;;6284496;28;20187;-66
2022/11/01 05:55:18;;;;;;;49.58;18.40;;;;;;;;;;6286123;28;20052;-67
2022/11/01 05:58:18;;;;;;;41.80;15.70;;;;;;;;;;6282859;28;20135;-69
2022/11/01 06:01:20;;;;;;;43.38;16.75;;;;;;;;;;6286218;28;20041;-69
2022/11/01 06:04:21;;;;;;;41.57;16.63;;;;;;;;;;6290263;28;20070;-69
2022/11/01 06:07:24;;;;;;;45.35;15.93;;;;;;;;;;6290436;28;20798;-68
2022/11/01 06:10:24;;;;;;;43.22;17.23;;;;;;;;;;6287213;28;20135;-67
2022/11/01 06:13:25;;;;;;;40.92;17.13;;;;;;;;;;6290474;28;20054;-68
2022/11/01 06:16:25;;;;;;;39.40;15.55;;;;;;;;;;6285941;28;20040;-69
2022/11/01 06:19:26;;;;;;;43.53;17.00;;;;;;;;;;6287280;28;20083;-68
2022/11/01 06:22:26;;;;;;;43.80;17.80;;;;;;;;;;6287108;28;20128;-68
2022/11/01 06:25:27;;;;;;;39.60;16.27;;;;;;;;;;6285722;28;20045;-67
2022/11/01 06:28:28;;;;;;;46.38;15.65;;;;;;;;;;6286689;28;20076;-67
2022/11/01 06:31:28;;;;;;;38.83;15.57;;;;;;;;;;6289542;28;20044;-69
2022/11/01 06:34:29;;;;;;;41.72;14.82;;;;;;;;;;6276686;28;20049;-69
2022/11/01 06:37:30;;;;;;;39.03;15.70;;;;;;;;;;6257660;28;20053;-69
2022/11/01 06:40:32;;;;;;;44.53;17.67;;;;;;;;;;6266023;28;20050;-69
2022/11/01 06:43:32;;;;;;;52.03;18.27;;;;;;;;;;6260248;28;20135;-68
2022/11/01 06:46:34;;;;;;;50.72;18.77;;;;;;;;;;6257444;28;20097;-69
2022/11/01 06:49:35;;;;;;;43.90;17.48;;;;;;;;;;6261328;28;20057;-68
2022/11/01 06:52:35;;;;;;;51.13;17.40;;;;;;;;;;6261463;28;20052;-68
2022/11/01 06:55:36;;;;;;;56.20;20.95;;;;;;;;;;6258284;28;20609;-68
2022/11/01 06:58:37;;;;;;;54.88;21.55;;;;;;;;;;6262513;28;20083;-68
2022/11/01 07:01:37;;;;;;;64.63;26.00;;;;;;;;;;6261644;28;20064;-68
2022/11/01 07:04:38;;;;;;;52.08;19.33;;;;;;;;;;6257310;28;20691;-68
2022/11/01 07:07:40;;;;;;;50.20;20.35;;;;;;;;;;6259423;28;20053;-67
2022/11/01 07:10:42;;;;;;;47.60;19.65;;;;;;;;;;6261899;28;20163;-66
2022/11/01 07:13:43;;;;;;;47.28;18.45;;;;;;;;;;6260750;28;20049;-67
2022/11/01 07:16:43;;;;;;;54.33;19.33;;;;;;;;;;6258673;28;20130;-67
2022/11/01 07:19:44;;;;;;;47.22;15.50;;;;;;;;;;6260864;28;20080;-68
2022/11/01 07:22:44;;;;;;;44.22;16.35;;;;;;;;;;6261288;28;20056;-67
2022/11/01 07:25:50;;;;;;;63.90;29.23;;;;;;;;;;6257365;28;20064;-67
2022/11/01 07:28:51;;;;;;;54.55;23.23;;;;;;;;;;6260443;28;20041;-68
2022/11/01 07:31:51;;;;;;;49.92;21.00;;;;;;;;;;6260895;28;20411;-68
2022/11/01 07:34:52;;;;;;;61.95;28.17;;;;;;;;;;6258075;28;20470;-69
2022/11/01 07:37:57;;;;;;;43.42;16.38;;;;;;;;;;6260496;28;20067;-67
2022/11/01 07:40:58;;;;;;;41.50;15.43;;;;;;;;;;6259468;28;20223;-69
2022/11/01 07:43:58;;;;;;;40.35;16.13;;;;;;;;;;6258632;28;20117;-68
2022/11/01 07:46:59;;;;;;;35.78;14.45;;;;;;;;;;6259732;28;20183;-68
2022/11/01 07:49:59;;;;;;;42.17;14.25;;;;;;;;;;6261959;28;20041;-68
2022/11/01 07:53:15;;;;;;;41.10;14.55;;;;;;;;;;6261644;28;20040;-70
2022/11/01 07:56:15;;;;;;;37.92;13.52;;;;;;;;;;6258052;28;20049;-69
2022/11/01 07:59:16;;;;;;;39.90;13.75;;;;;;;;;;6260523;28;20053;-67
2022/11/01 08:02:16;;;;;;;39.40;14.45;;;;;;;;;;6262141;28;20117;-70
2022/11/01 08:05:17;;;;;;;30.05;12.18;;;;;;;;;;6259877;28;20076;-69
2022/11/01 08:08:18;;;;;;;38.03;13.20;;;;;;;;;;6261737;28;21047;-69
2022/11/01 08:11:18;;;;;;;34.00;12.67;;;;;;;;;;6262960;28;20416;-69
2022/11/01 08:14:19;;;;;;;34.40;12.43;;;;;;;;;;6261446;28;20072;-67
2022/11/01 08:17:20;;;;;;;29.05;11.45;;;;;;;;;;6261206;28;20040;-69
2022/11/01 08:20:20;;;;;;;31.98;11.80;;;;;;;;;;6263199;28;20071;-69
2022/11/01 08:23:21;;;;;;;28.77;11.43;;;;;;;;;;6262678;28;20068;-68
2022/11/01 08:26:21;;;;;;;36.85;14.30;;;;;;;;;;6259909;28;20542;-69
2022/11/01 08:29:22;;;;;;;37.00;14.57;;;;;;;;;;6262241;28;20547;-69
2022/11/01 08:32:22;;;;;;;28.90;13.27;;;;;;;;;;6263424;28;20045;-68
2022/11/01 08:35:23;;;;;;;35.55;13.73;;;;;;;;;;6261586;28;20099;-68
2022/11/01 08:38:24;;;;;;;35.55;15.38;;;;;;;;;;6262027;28;20095;-68
2022/11/01 08:41:27;;;;;;;27.50;11.75;;;;;;;;;;6262637;28;20039;-68
2022/11/01 08:44:27;;;;;;;35.08;13.63;;;;;;;;;;6264968;28;20119;-71
2022/11/01 08:47:28;;;;;;;27.45;10.10;;;;;;;;;;6264892;28;20053;-68
2022/11/01 08:50:28;;;;;;;30.05;11.02;;;;;;;;;;6267311;28;20503;-69
2022/11/01 08:53:29;;;;;;;27.17;10.77;;;;;;;;;;6267820;28;20059;-70
2022/11/01 08:56:30;;;;;;;30.02;11.75;;;;;;;;;;6264049;28;20045;-69
2022/11/01 08:59:31;;;;;;;27.50;10.73;;;;;;;;;;6267715;28;20049;-69
2022/11/01 09:02:32;;;;;;;26.35;10.77;;;;;;;;;;6267813;28;20109;-68
2022/11/01 09:05:34;;;;;;;23.10;10.52;;;;;;;;;;6263916;28;20136;-68
2022/11/01 09:08:34;;;;;;;24.73;10.38;;;;;;;;;;6267013;28;20052;-68
2022/11/01 09:11:35;;;;;;;26.02;10.07;;;;;;;;;;6267820;28;20145;-68
2022/11/01 09:14:37;;;;;;;25.65;10.65;;;;;;;;;;6258522;28;20499;-69
2022/11/01 09:17:37;;;;;;;29.98;10.35;;;;;;;;;;6259899;28;20084;-69
2022/11/01 09:20:38;;;;;;;29.33;9.75;;;;;;;;;;6263802;28;20072;-69
2022/11/01 09:23:39;;;;;;;26.48;10.25;;;;;;;;;;6265597;28;20189;-68
2022/11/01 09:26:40;;;;;;;25.02;10.20;;;;;;;;;;6260343;28;20624;-68
2022/11/01 09:29:41;;;;;;;23.55;10.85;;;;;;;;;;6264741;28;20344;-69
2022/11/01 09:32:41;;;;;;;28.88;10.00;;;;;;;;;;6265689;28;20118;-69
2022/11/01 09:35:42;;;;;;;24.10;10.82;;;;;;;;;;6262238;28;20071;-69
2022/11/01 09:38:42;;;;;;;23.30;9.73;;;;;;;;;;6264325;28;20462;-69
2022/11/01 09:41:47;;;;;;;23.70;9.95;;;;;;;;;;6265934;28;20053;-69
2022/11/01 09:44:51;;;;;;;28.75;10.77;;;;;;;;;;6263348;28;20474;-68
2022/11/01 09:47:54;;;;;;;29.60;11.15;;;;;;;;;;6262696;28;20187;-69
2022/11/01 09:51:04;;;;;;;23.08;10.20;;;;;;;;;;6265143;28;20056;-68
2022/11/01 09:54:07;;;;;;;25.02;10.02;;;;;;;;;;6262266;28;20757;-69
2022/11/01 09:57:16;;;;;;;22.73;9.10;;;;;;;;;;6264651;28;20057;-69
2022/11/01 10:00:18;;;;;;;26.38;10.52;;;;;;;;;;6265355;28;21356;-69
2022/11/01 10:03:39;;;;;;;33.22;14.02;;;;;;;;;;6265750;28;20057;-68
2022/11/01 10:06:47;;;;;;;36.33;13.27;;;;;;;;;;6263194;28;20199;-68
2022/11/01 10:10:23;;;;;;;28.80;12.23;;;;;;;;;;6262203;28;20574;-69
2022/11/01 10:13:46;;;;;;;23.65;10.48;;;;;;;;;;6178583;28;20080;-69
2022/11/01 10:17:03;;;;;;;28.20;11.20;;;;;;;;;;6264006;28;20461;-69
2022/11/01 10:20:06;;;;;;;26.35;11.48;;;;;;;;;;6262450;28;20433;-69
2022/11/01 10:23:14;;;;;;;25.67;11.52;;;;;;;;;;6263729;28;20087;-68
2022/11/01 10:26:28;;;;;;;30.30;11.23;;;;;;;;;;6261467;28;20045;-68
2022/11/01 10:29:39;;;;;;;22.95;9.80;;;;;;;;;;6261971;28;20053;-65
2022/11/01 10:32:53;;;;;;;26.70;10.30;;;;;;;;;;6254201;28;20904;-68
2022/11/01 10:36:09;;;;;;;26.60;11.20;;;;;;;;;;6258448;28;20044;-70
2022/11/01 10:39:31;;;;;;;24.38;11.13;;;;;;;;;;6261237;28;20041;-69
2022/11/01 10:42:31;;;;;;;29.37;12.33;;;;;;;;;;6261365;28;20140;-68
2022/11/01 10:45:32;;;;;;;29.67;11.63;;;;;;;;;;6258962;28;20072;-68
2022/11/01 10:48:37;;;;;;;26.73;11.93;;;;;;;;;;6262648;28;20045;-67
2022/11/01 10:51:40;;;;;;;28.55;11.90;;;;;;;;;;6263572;28;20115;-65
2022/11/01 10:54:42;;;;;;;30.00;12.38;;;;;;;;;;6262207;28;20146;-63
2022/11/01 10:57:45;;;;;;;;;;;;;;;;;;6264950;28;20053;-64
2022/11/01 11:00:45;;;;;;;22.92;10.75;;;;;;;;;;6265458;28;19929;-69
2022/11/01 11:03:49;;;;;;;23.03;11.80;;;;;;;;;;6265084;28;20053;-66
2022/11/01 11:06:50;;;;;;;28.10;12.55;;;;;;;;;;6265664;28;20147;-67
2022/11/01 11:09:51;;;;;;;27.23;11.80;;;;;;;;;;6263467;28;20164;-65
2022/11/01 11:12:57;;;;;;;26.95;13.15;;;;;;;;;;6265657;28;20052;-68
2022/11/01 11:16:04;;;;;;;27.63;11.02;;;;;;;;;;6264329;28;20052;-68
2022/11/01 11:19:07;;;;;;;24.40;10.45;;;;;;;;;;6262173;28;20084;-67
2022/11/01 11:22:08;;;;;;;25.65;11.57;;;;;;;;;;6265905;28;20053;-67
2022/11/01 11:25:15;;;;;;;22.77;10.30;;;;;;;;;;6262583;28;20061;-69
2022/11/01 11:28:30;;;;;;;28.35;11.55;;;;;;;;;;6261609;28;20045;-70
2022/11/01 11:31:33;;;;;;;24.85;11.07;;;;;;;;;;6257042;28;20404;-66
2022/11/01 11:34:38;;;;;;;24.45;12.00;;;;;;;;;;6257205;28;20048;-70
2022/11/01 11:37:39;;;;;;;25.27;11.10;;;;;;;;;;6259975;28;20384;-69
2022/11/01 11:40:39;;;;;;;26.50;12.25;;;;;;;;;;6258672;28;20408;-69
2022/11/01 11:43:41;;;;;;;24.65;11.27;;;;;;;;;;6260321;28;20083;-68
2022/11/01 11:46:55;;;;;;;25.92;11.60;;;;;;;;;;6258640;28;20056;-68
2022/11/01 11:49:58;;;;;;;28.20;11.23;;;;;;;;;;6260020;28;20400;-70
2022/11/01 11:53:06;;;;;;;27.55;12.25;;;;;;;;;;6258017;28;20132;-68
2022/11/01 11:56:08;;;;;;;30.83;12.23;;;;;;;;;;6258124;28;20072;-69
2022/11/01 11:59:24;;;;;;;25.20;12.13;;;;;;;;;;6259436;28;20132;-68
2022/11/01 12:02:37;;;;;;;26.63;11.32;;;;;;;;;;6260328;28;20128;-68
2022/11/01 12:05:50;;;;;;;25.95;11.55;;;;;;;;;;6256821;28;20166;-65
2022/11/01 12:08:53;;;;;;;32.45;12.70;;;;;;;;;;6258190;28;20127;-68
2022/11/01 12:11:54;;;;;;;28.20;13.13;;;;;;;;;;6259437;28;20507;-66
2022/11/01 12:14:55;;;;;;;31.27;13.93;;;;;;;;;;6256859;28;20043;-68
2022/11/01 12:18:08;;;;;;;34.55;14.75;;;;;;;;;;6259021;28;20045;-68
2022/11/01 12:21:16;;;;;;;34.75;14.07;;;;;;;;;;6260667;28;20056;-67
2022/11/01 12:24:29;;;;;;;32.28;12.75;;;;;;;;;;6258366;28;20061;-67
2022/11/01 12:27:33;;;;;;;42.63;16.02;;;;;;;;;;6258039;28;20127;-68
2022/11/01 12:30:36;;;;;;;35.92;13.80;;;;;;;;;;6260851;28;20049;-65
2022/11/01 12:33:44;;;;;;;32.00;14.23;;;;;;;;;;6259865;28;20480;-70
2022/11/01 12:36:54;;;;;;;33.15;13.38;;;;;;;;;;6254837;28;20106;-68
2022/11/01 12:40:03;;;;;;;37.42;15.55;;;;;;;;;;6252958;28;20051;-65
2022/11/01 12:43:26;;;;;;;35.53;13.48;;;;;;;;;;6259640;28;20144;-66
2022/11/01 12:46:53;;;;;;;35.88;13.77;;;;;;;;;;6256699;28;20057;-66
2022/11/01 12:49:57;;;;;;;36.25;13.57;;;;;;;;;;6233351;28;20047;-66
2022/11/01 12:53:09;;;;;;;32.60;13.68;;;;;;;;;;6257505;28;20045;-66
2022/11/01 12:56:10;;;;;;;29.02;13.27;;;;;;;;;;6256444;28;20143;-66
2022/11/01 12:59:14;;;;;;;34.85;14.15;;;;;;;;;;6257803;28;20057;-66
2022/11/01 13:02:34;;;;;;;31.95;14.43;;;;;;;;;;6255707;28;20057;-65
2022/11/01 13:05:54;;;;;;;35.22;14.52;;;;;;;;;;6257265;28;20106;-67
2022/11/01 13:09:05;;;;;;;32.60;13.50;;;;;;;;;;6258383;28;20056;-66
2022/11/01 13:12:17;;;;;;;33.05;13.93;;;;;;;;;;6257593;28;20426;-67
2022/11/01 13:15:21;;;;;;;;;;;;;;;;;;6255525;28;20052;-65
2022/11/01 13:18:30;;;;;;;37.67;14.55;;;;;;;;;;6258699;28;19929;-67
2022/11/01 13:21:52;;;;;;;57.35;22.92;;;;;;;;;;6257226;28;20049;-64
2022/11/01 13:25:13;;;;;;;31.63;14.77;;;;;;;;;;6260059;28;20047;-67
2022/11/01 13:28:41;;;;;;;39.00;13.97;;;;;;;;;;6260513;28;20114;-64
2022/11/01 13:32:08;;;;;;;29.55;13.32;;;;;;;;;;6264173;28;20747;-63
2022/11/01 13:35:46;;;;;;;39.95;14.40;;;;;;;;;;6264686;28;20143;-63
2022/11/01 13:39:09;;;;;;;39.75;15.88;;;;;;;;;;6267571;28;20111;-66
2022/11/01 13:42:17;;;;;;;38.22;16.33;;;;;;;;;;6263776;28;20140;-75
2022/11/01 13:45:52;;;;;;;41.95;14.95;;;;;;;;;;6258357;28;20143;-74
2022/11/01 13:48:52;;;;;;;37.53;16.10;;;;;;;;;;6230250;28;20091;-66
2022/11/01 13:52:00;;;;;;;42.60;14.90;;;;;;;;;;6261855;28;20057;-68
2022/11/01 13:55:19;;;;;;;40.25;16.27;;;;;;;;;;6259840;28;20412;-62
2022/11/01 13:58:22;;;;;;;35.20;15.52;;;;;;;;;;6260074;28;20067;-64
2022/11/01 14:01:29;;;;;;;37.80;15.63;;;;;;;;;;6261300;28;20152;-65
2022/11/01 14:04:33;;;;;;;41.63;17.33;;;;;;;;;;6259204;28;20060;-64
2022/11/01 14:07:38;;;;;;;35.85;15.35;;;;;;;;;;6259260;28;20052;-66
2022/11/01 14:10:38;;;;;;;33.85;16.55;;;;;;;;;;6259727;28;20045;-65
2022/11/01 14:13:45;;;;;;;36.15;16.10;;;;;;;;;;6259499;28;20052;-69
2022/11/01 14:16:46;;;;;;;40.83;15.98;;;;;;;;;;6259815;28;20053;-70
2022/11/01 14:19:48;;;;;;;36.53;19.45;;;;;;;;;;6259731;28;20173;-68
2022/11/01 14:22:49;;;;;;;47.28;24.33;;;;;;;;;;6261489;28;20513;-68
2022/11/01 14:26:09;;;;;;;62.88;33.45;;;;;;;;;;6261375;28;20045;-66
2022/11/01 14:29:10;;;;;;;59.13;26.88;;;;;;;;;;6264623;28;20059;-67
2022/11/01 14:32:12;;;;;;;37.55;18.58;;;;;;;;;;6263832;28;20049;-63
2022/11/01 14:35:22;;;;;;;35.58;18.88;;;;;;;;;;6261036;28;20454;-68
2022/11/01 14:38:31;;;;;;;34.55;17.95;;;;;;;;;;6264493;28;20057;-63
2022/11/01 14:41:35;;;;;;;35.67;16.08;;;;;;;;;;6261531;28;20115;-65
2022/11/01 14:44:40;;;;;;;39.10;16.58;;;;;;;;;;6263398;28;20049;-71
2022/11/01 14:47:42;;;;;;;40.50;17.17;;;;;;;;;;6261845;28;20182;-66
2022/11/01 14:51:21;;;;;;;38.65;16.38;;;;;;;;;;6261298;28;20052;-68
2022/11/01 14:54:48;;;;;;;32.78;15.98;;;;;;;;;;6257064;28;20049;-64
2022/11/01 14:57:49;;;;;;;60.90;23.30;;;;;;;;;;6259296;28;20086;-68
2022/11/01 15:00:53;;;;;;;89.25;37.78;;;;;;;;;;6259314;28;20041;-67
2022/11/01 15:03:57;;;;;;;53.70;24.48;;;;;;;;;;6259317;28;20091;-67
2022/11/01 15:06:59;;;;;;;38.70;17.35;;;;;;;;;;6257780;28;20052;-66
2022/11/01 15:10:13;;;;;;;33.53;15.95;;;;;;;;;;6257683;28;20148;-69
2022/11/01 15:13:15;;;;;;;40.10;20.73;;;;;;;;;;6257990;28;20060;-67
2022/11/01 15:16:22;;;;;;;37.45;17.50;;;;;;;;;;6256540;28;20560;-67
2022/11/01 15:19:30;;;;;;;39.05;16.85;;;;;;;;;;6259492;28;20422;-67
2022/11/01 15:22:32;;;;;;;36.63;16.88;;;;;;;;;;6260288;28;20061;-71
2022/11/01 15:25:33;;;;;;;37.30;15.87;;;;;;;;;;6263240;28;20056;-70
2022/11/01 15:28:44;;;;;;;49.92;19.42;;;;;;;;;;6262023;28;20207;-66
2022/11/01 15:31:49;;;;;;;38.30;16.30;;;;;;;;;;6261711;28;20048;-66
2022/11/01 15:34:52;;;;;;;33.60;15.93;;;;;;;;;;6255015;28;20064;-62
2022/11/01 15:37:53;;;;;;;36.92;16.40;;;;;;;;;;6258516;28;20134;-63
2022/11/01 15:40:55;;;;;;;38.33;15.80;;;;;;;;;;6259393;28;20928;-61
2022/11/01 15:44:06;;;;;;;32.53;15.65;;;;;;;;;;6260935;28;20539;-67
2022/11/01 15:47:24;;;;;;;113.20;42.40;;;;;;;;;;6261205;28;20144;-66
2022/11/01 15:50:31;;;;;;;84.82;49.67;;;;;;;;;;6259880;28;20148;-69
2022/11/01 15:53:35;;;;;;;53.22;28.13;;;;;;;;;;6263350;28;20481;-66
2022/11/01 15:56:42;;;;;;;43.60;19.92;;;;;;;;;;6259793;28;20461;-70
2022/11/01 15:59:46;;;;;;;52.42;20.58;;;;;;;;;;6255518;28;20143;-65
2022/11/01 16:03:02;;;;;;;43.92;19.05;;;;;;;;;;6256968;28;20056;-65
2022/11/01 16:06:12;;;;;;;36.97;16.20;;;;;;;;;;6255201;28;20065;-65
2022/11/01 16:09:21;;;;;;;35.25;15.73;;;;;;;;;;6252766;28;20049;-69
2022/11/01 16:12:26;;;;;;;35.80;15.35;;;;;;;;;;6248041;28;20123;-65
2022/11/01 16:15:31;;;;;;;38.85;15.23;;;;;;;;;;6248284;28;20601;-65
2022/11/01 16:18:35;;;;;;;39.75;15.55;;;;;;;;;;6253778;28;20056;-66
2022/11/01 16:21:37;;;;;;;40.92;16.17;;;;;;;;;;6249006;28;20139;-66
2022/11/01 16:24:37;;;;;;;38.42;15.98;;;;;;;;;;6249567;28;20068;-67
2022/11/01 16:27:50;;;;;;;49.35;19.30;;;;;;;;;;6250023;28;20131;-66
2022/11/01 16:30:54;;;;;;;44.00;16.80;;;;;;;;;;6248195;28;20047;-66
2022/11/01 16:33:55;;;;;;;44.30;16.77;;;;;;;;;;6252122;28;21006;-66
2022/11/01 16:36:56;;;;;;;45.90;17.60;;;;;;;;;;6249679;28;20049;-70
2022/11/01 16:39:57;;;;;;;48.15;18.33;;;;;;;;;;6251082;28;20060;-67
2022/11/01 16:42:59;;;;;;;;;;;;;;;;;;6252296;28;20060;-66
2022/11/01 16:46:00;;;;;;;43.58;16.95;;;;;;;;;;6252436;28;19936;-64
2022/11/01 16:49:15;;;;;;;39.60;16.58;;;;;;;;;;6259255;28;20048;-71
2022/11/01 16:52:16;;;;;;;40.95;17.48;;;;;;;;;;6257904;28;20049;-67
2022/11/01 16:55:16;;;;;;;42.72;17.38;;;;;;;;;;6257572;28;20045;-68
2022/11/01 16:58:22;;;;;;;48.05;18.60;;;;;;;;;;6253513;28;20102;-73
2022/11/01 17:01:27;;;;;;;82.10;39.28;;;;;;;;;;6253885;28;20080;-66
2022/11/01 17:04:28;;;;;;;72.03;35.78;;;;;;;;;;6259881;28;20057;-66
2022/11/01 17:07:30;;;;;;;102.00;55.05;;;;;;;;;;6262755;28;20950;-66
2022/11/01 17:10:31;;;;;;;;;;;;;;;;;;6262694;28;20053;-67
2022/11/01 17:13:31;;;;;;;61.03;24.35;;;;;;;;;;6262691;28;20329;-65
2022/11/01 17:16:35;;;;;;;55.38;21.58;;;;;;;;;;6260926;28;20053;-65
2022/11/01 17:19:43;;;;;;;54.55;20.63;;;;;;;;;;6258111;28;20973;-67
2022/11/01 17:22:44;;;;;;;60.65;22.23;;;;;;;;;;6261032;28;20045;-66
2022/11/01 17:25:47;;;;;;;58.38;22.10;;;;;;;;;;6261521;28;20136;-66
2022/11/01 17:28:48;;;;;;;56.20;22.25;;;;;;;;;;6263464;28;20131;-67
2022/11/01 17:31:49;;;;;;;66.03;23.25;;;;;;;;;;6261095;28;20594;-66
2022/11/01 17:34:49;;;;;;;57.50;22.42;;;;;;;;;;6264414;28;20049;-66
2022/11/01 17:37:50;;;;;;;60.97;21.95;;;;;;;;;;6262085;28;20140;-66
2022/11/01 17:40:53;;;;;;;55.22;21.98;;;;;;;;;;6263997;28;20142;-66
2022/11/01 17:43:54;;;;;;;68.85;23.70;;;;;;;;;;6261709;28;20155;-65
2022/11/01 17:46:55;;;;;;;60.05;22.30;;;;;;;;;;6259738;28;20044;-66
2022/11/01 17:49:55;;;;;;;64.30;23.35;;;;;;;;;;6260972;28;20067;-65
2022/11/01 17:52:56;;;;;;;64.30;23.63;;;;;;;;;;6264035;28;20126;-64
2022/11/01 17:55:56;;;;;;;61.17;22.40;;;;;;;;;;6265419;28;20151;-64
2022/11/01 17:58:57;;;;;;;182.00;54.65;;;;;;;;;;6263714;28;20108;-64
2022/11/01 18:01:58;;;;;;;75.88;33.13;;;;;;;;;;6259544;28;20187;-65
2022/11/01 18:04:58;;;;;;;73.35;29.05;;;;;;;;;;6262635;28;20439;-65